createdAt,value
2022-12-07T00:01:34.854Z,27.66
2022-12-07T00:04:03.026Z,27.67
2022-12-07T00:06:30.848Z,28.13
2022-12-07T00:08:57.819Z,27.16
2022-12-07T00:11:24.994Z,27.89
2022-12-07T00:13:56.933Z,27.06
2022-12-07T00:16:25.562Z,25.79
2022-12-07T00:18:52.811Z,25.96
2022-12-07T00:21:24.264Z,26.77
2022-12-07T00:23:52.180Z,27.50
2022-12-07T00:26:49.096Z,28.78
2022-12-07T00:29:22.214Z,28.78
2022-12-07T00:31:49.072Z,29.77
2022-12-07T00:34:21.275Z,30.73
2022-12-07T00:36:48.052Z,29.89
2022-12-07T00:39:17.213Z,30.53
2022-12-07T00:41:43.981Z,30.53
2022-12-07T00:44:10.773Z,30.75
2022-12-07T00:46:37.485Z,29.28
2022-12-07T00:49:05.219Z,29.63
2022-12-07T00:51:32.082Z,29.38
2022-12-07T00:53:59.780Z,29.04
2022-12-07T00:56:28.147Z,29.92
2022-12-07T00:59:00.552Z,30.25
2022-12-07T01:01:29.851Z,31.60
2022-12-07T01:03:57.634Z,30.45
2022-12-07T01:06:27.302Z,31.14
2022-12-07T01:08:55.905Z,29.37
2022-12-07T01:11:25.081Z,29.97
2022-12-07T01:13:53.127Z,30.07
2022-12-07T01:16:25.173Z,30.97
2022-12-07T01:18:53.718Z,29.72
2022-12-07T01:21:21.726Z,29.39
2022-12-07T01:23:48.737Z,30.58
2022-12-07T01:26:18.041Z,31.10
2022-12-07T01:28:45.222Z,30.41
2022-12-07T01:31:14.189Z,29.83
2022-12-07T01:33:42.450Z,30.78
2022-12-07T01:36:17.422Z,29.23
2022-12-07T01:38:46.544Z,30.13
2022-12-07T01:41:14.254Z,29.70
2022-12-07T01:44:19.391Z,29.92
2022-12-07T01:46:48.813Z,29.60
2022-12-07T01:49:32.583Z,28.45
2022-12-07T01:52:16.264Z,28.85
2022-12-07T01:54:43.963Z,28.35
2022-12-07T01:57:10.790Z,29.21
2022-12-07T01:59:37.954Z,28.68
2022-12-07T02:02:09.157Z,28.79
2022-12-07T02:04:52.336Z,28.65
2022-12-07T02:07:20.025Z,27.90
2022-12-07T02:09:46.730Z,28.63
2022-12-07T02:12:13.677Z,27.52
2022-12-07T02:14:41.808Z,28.21
2022-12-07T02:17:35.648Z,28.32
2022-12-07T02:20:24.276Z,27.69
2022-12-07T02:23:19.739Z,27.07
2022-12-07T02:26:17.394Z,26.25
2022-12-07T02:29:17.790Z,25.82
2022-12-07T02:32:13.623Z,25.75
2022-12-07T02:35:02.736Z,26.25
2022-12-07T02:37:51.706Z,26.15
2022-12-07T02:40:26.276Z,26.48
2022-12-07T02:43:00.514Z,27.37
2022-12-07T02:45:28.516Z,27.35
2022-12-07T02:47:59.965Z,25.92
2022-12-07T02:50:27.267Z,25.34
2022-12-07T02:52:55.260Z,26.14
2022-12-07T02:55:27.120Z,25.64
2022-12-07T02:58:07.460Z,24.88
2022-12-07T03:00:41.266Z,25.98
2022-12-07T03:03:11.083Z,24.98
2022-12-07T03:05:46.867Z,25.04
2022-12-07T03:08:19.515Z,25.11
2022-12-07T03:10:55.793Z,23.97
2022-12-07T03:13:53.643Z,24.90
2022-12-07T03:16:30.353Z,25.82
2022-12-07T03:19:26.302Z,26.25
2022-12-07T03:22:01.614Z,25.39
2022-12-07T03:24:31.180Z,24.47
2022-12-07T03:27:05.672Z,23.63
2022-12-07T03:29:41.722Z,24.65
2022-12-07T03:32:15.498Z,24.52
2022-12-07T03:34:48.751Z,25.06
2022-12-07T03:37:40.528Z,25.39
2022-12-07T03:40:33.634Z,26.18
2022-12-07T03:43:00.585Z,25.77
2022-12-07T03:45:40.885Z,26.30
2022-12-07T03:48:22.663Z,27.02
2022-12-07T03:51:03.418Z,26.92
2022-12-07T03:53:37.425Z,27.33
2022-12-07T03:56:05.400Z,26.94
2022-12-07T03:58:32.192Z,26.51
2022-12-07T04:00:59.437Z,26.54
2022-12-07T04:03:27.088Z,27.02
2022-12-07T04:05:54.808Z,26.48
2022-12-07T04:08:22.569Z,26.01
2022-12-07T04:10:53.168Z,25.86
2022-12-07T04:13:40.471Z,27.39
2022-12-07T04:16:17.456Z,26.07
2022-12-07T04:18:44.937Z,25.44
2022-12-07T04:21:12.379Z,25.43
2022-12-07T04:23:42.355Z,25.02
2022-12-07T04:26:09.575Z,25.75
2022-12-07T04:28:38.208Z,24.67
2022-12-07T04:31:05.294Z,24.41
2022-12-07T04:33:32.123Z,25.52
2022-12-07T04:36:01.314Z,24.18
2022-12-07T04:38:28.293Z,25.47
2022-12-07T04:40:59.065Z,25.37
2022-12-07T04:43:26.481Z,25.30
2022-12-07T04:45:53.203Z,26.23
2022-12-07T04:48:21.400Z,26.10
2022-12-07T04:50:50.160Z,25.81
2022-12-07T04:53:17.024Z,26.34
2022-12-07T04:55:44.629Z,26.40
2022-12-07T04:58:11.863Z,26.64
2022-12-07T05:00:39.086Z,26.41
2022-12-07T05:03:06.771Z,26.21
2022-12-07T05:05:33.796Z,26.80
2022-12-07T05:08:01.277Z,27.01
2022-12-07T05:10:28.342Z,28.39
2022-12-07T05:12:55.117Z,26.63
2022-12-07T05:15:21.861Z,26.85
2022-12-07T05:17:48.618Z,27.33
2022-12-07T05:20:15.327Z,26.56
2022-12-07T05:22:43.549Z,26.72
2022-12-07T05:25:10.600Z,28.10
2022-12-07T05:27:37.649Z,27.32
2022-12-07T05:30:05.973Z,28.55
2022-12-07T05:32:33.498Z,28.58
2022-12-07T05:35:00.533Z,29.11
2022-12-07T05:37:27.324Z,29.51
2022-12-07T05:39:54.392Z,29.73
2022-12-07T05:42:21.208Z,29.28
2022-12-07T05:44:48.422Z,29.08
2022-12-07T05:47:15.411Z,30.06
2022-12-07T05:49:42.518Z,29.08
2022-12-07T05:52:09.629Z,28.47
2022-12-07T05:54:36.540Z,28.96
2022-12-07T05:57:03.956Z,28.61
2022-12-07T05:59:31.107Z,29.20
2022-12-07T06:02:05.941Z,28.54
2022-12-07T06:04:34.849Z,28.83
2022-12-07T06:07:01.640Z,29.47
2022-12-07T06:09:28.889Z,29.72
2022-12-07T06:11:56.359Z,28.89
2022-12-07T06:14:23.237Z,29.35
2022-12-07T06:16:50.569Z,29.18
2022-12-07T06:19:18.462Z,30.05
2022-12-07T06:21:45.350Z,29.88
2022-12-07T06:24:12.681Z,30.36
2022-12-07T06:26:39.720Z,30.27
2022-12-07T06:29:06.859Z,29.36
2022-12-07T06:31:34.740Z,29.34
2022-12-07T06:34:02.550Z,30.75
2022-12-07T06:36:29.682Z,30.00
2022-12-07T06:38:56.411Z,30.70
2022-12-07T06:41:23.688Z,29.55
2022-12-07T06:43:55.765Z,30.28
2022-12-07T06:46:23.148Z,28.67
2022-12-07T06:48:50.010Z,30.34
2022-12-07T06:51:17.235Z,30.52
2022-12-07T06:53:43.979Z,30.78
2022-12-07T06:56:10.883Z,30.00
2022-12-07T06:58:37.933Z,29.45
2022-12-07T07:01:10.016Z,29.98
2022-12-07T07:03:36.791Z,28.74
2022-12-07T07:06:04.060Z,29.48
2022-12-07T07:08:32.277Z,29.07
2022-12-07T07:10:59.458Z,29.68
2022-12-07T07:13:26.349Z,29.24
2022-12-07T07:15:53.153Z,30.41
2022-12-07T07:18:20.258Z,29.47
2022-12-07T07:20:46.950Z,28.61
2022-12-07T07:23:14.077Z,29.73
2022-12-07T07:25:41.197Z,29.43
2022-12-07T07:28:08.120Z,31.45
2022-12-07T07:30:34.946Z,30.33
2022-12-07T07:33:03.460Z,29.17
2022-12-07T07:35:31.230Z,28.45
2022-12-07T07:37:57.934Z,30.54
2022-12-07T07:40:26.200Z,30.64
2022-12-07T07:42:54.435Z,30.65
2022-12-07T07:45:22.609Z,29.86
2022-12-07T07:47:49.996Z,29.82
2022-12-07T07:50:17.018Z,30.35
2022-12-07T07:52:44.101Z,30.42
2022-12-07T07:55:10.934Z,29.49
2022-12-07T07:57:38.109Z,29.88
2022-12-07T08:00:06.376Z,29.61
2022-12-07T08:02:34.531Z,28.79
2022-12-07T08:05:01.312Z,28.93
2022-12-07T08:07:28.942Z,28.48
2022-12-07T08:09:57.012Z,28.54
2022-12-07T08:12:23.798Z,29.04
2022-12-07T08:14:51.347Z,26.92
2022-12-07T08:17:18.234Z,26.16
2022-12-07T08:19:45.377Z,25.54
2022-12-07T08:22:12.321Z,24.82
2022-12-07T08:24:39.114Z,21.46
2022-12-07T08:27:07.988Z,20.43
2022-12-07T08:29:35.156Z,19.06
2022-12-07T08:32:05.371Z,18.07
2022-12-07T08:34:36.429Z,18.06
2022-12-07T08:37:03.642Z,17.81
2022-12-07T08:39:32.528Z,17.73
2022-12-07T08:42:00.148Z,19.54
2022-12-07T08:44:27.339Z,20.07
2022-12-07T08:46:57.476Z,19.21
2022-12-07T08:49:32.020Z,22.51
2022-12-07T08:51:59.116Z,22.71
2022-12-07T08:54:26.249Z,22.37
2022-12-07T08:56:58.525Z,21.70
2022-12-07T08:59:26.432Z,20.78
2022-12-07T09:01:53.885Z,19.47
2022-12-07T09:04:20.884Z,18.23
2022-12-07T09:06:48.096Z,16.24
2022-12-07T09:09:15.530Z,15.04
2022-12-07T09:11:42.386Z,13.88
2022-12-07T09:14:09.406Z,14.41
2022-12-07T09:16:36.496Z,13.80
2022-12-07T09:19:03.843Z,13.83
2022-12-07T09:21:31.021Z,12.54
2022-12-07T09:23:58.160Z,13.16
2022-12-07T09:26:24.879Z,13.26
2022-12-07T09:28:51.664Z,12.85
2022-12-07T09:31:24.366Z,12.39
2022-12-07T09:33:59.572Z,14.33
2022-12-07T09:36:26.406Z,14.75
2022-12-07T09:38:53.253Z,15.12
2022-12-07T09:41:20.572Z,14.57
2022-12-07T09:43:47.367Z,14.41
2022-12-07T09:46:15.742Z,15.31
2022-12-07T09:48:43.701Z,14.93
2022-12-07T09:51:24.097Z,14.39
2022-12-07T09:53:53.974Z,13.76
2022-12-07T09:56:23.593Z,13.92
2022-12-07T09:58:50.691Z,13.39
2022-12-07T10:01:22.637Z,13.50
2022-12-07T10:04:00.078Z,13.49
2022-12-07T10:06:26.803Z,13.28
2022-12-07T10:08:55.128Z,14.14
2022-12-07T10:11:22.551Z,14.01
2022-12-07T10:13:53.392Z,14.12
2022-12-07T10:16:27.039Z,14.60
2022-12-07T10:18:53.902Z,14.56
2022-12-07T10:21:25.141Z,13.84
2022-12-07T10:24:14.798Z,14.16
2022-12-07T10:26:48.954Z,13.59
2022-12-07T10:29:16.846Z,13.97
2022-12-07T10:31:43.611Z,14.44
2022-12-07T10:34:24.106Z,13.96
2022-12-07T10:36:51.188Z,13.99
2022-12-07T10:39:22.740Z,14.56
2022-12-07T10:41:59.876Z,14.43
2022-12-07T10:44:30.423Z,13.46
2022-12-07T10:47:04.164Z,13.11
2022-12-07T10:49:43.505Z,13.11
2022-12-07T10:52:40.590Z,13.30
2022-12-07T10:55:28.974Z,13.95
2022-12-07T10:58:14.590Z,12.72
2022-12-07T11:00:46.149Z,13.51
2022-12-07T11:03:35.962Z,12.80
2022-12-07T11:06:15.309Z,12.39
2022-12-07T11:08:50.844Z,12.75
2022-12-07T11:11:39.906Z,13.52
2022-12-07T11:14:49.405Z,13.23
2022-12-07T11:17:56.046Z,14.03
2022-12-07T11:20:34.152Z,14.89
2022-12-07T11:23:41.579Z,14.36
2022-12-07T11:26:09.082Z,13.93
2022-12-07T11:29:00.080Z,14.36
2022-12-07T11:32:00.656Z,14.97
2022-12-07T11:35:05.586Z,14.54
2022-12-07T11:37:36.447Z,14.43
2022-12-07T11:40:27.058Z,14.40
2022-12-07T11:43:13.896Z,14.35
2022-12-07T11:45:43.368Z,14.82
2022-12-07T11:48:16.305Z,14.94
2022-12-07T11:50:53.078Z,15.87
2022-12-07T11:53:37.684Z,14.75
2022-12-07T11:56:14.921Z,14.89
2022-12-07T11:59:14.121Z,15.14
2022-12-07T12:01:59.654Z,15.37
2022-12-07T12:04:40.177Z,15.29
2022-12-07T12:10:06.757Z,16.61
2022-12-07T12:16:18.220Z,16.57
2022-12-07T12:18:51.394Z,18.35
2022-12-07T12:21:20.022Z,17.37
2022-12-07T12:24:02.968Z,17.14
2022-12-07T12:26:34.418Z,16.99
2022-12-07T12:29:35.440Z,16.93
2022-12-07T12:32:22.923Z,18.01
2022-12-07T12:35:03.693Z,18.89
2022-12-07T12:37:33.849Z,17.39
2022-12-07T12:40:25.818Z,18.82
2022-12-07T12:42:57.668Z,19.65
2022-12-07T12:45:32.582Z,19.63
2022-12-07T12:48:03.635Z,19.38
2022-12-07T12:50:31.312Z,18.76
2022-12-07T12:53:17.611Z,19.71
2022-12-07T12:55:50.489Z,18.77
2022-12-07T12:58:29.288Z,18.67
2022-12-07T13:01:31.299Z,18.53
2022-12-07T13:03:58.338Z,20.31
2022-12-07T13:06:25.952Z,19.00
2022-12-07T13:08:55.761Z,18.52
2022-12-07T13:11:34.894Z,20.28
2022-12-07T13:14:52.191Z,18.60
2022-12-07T13:17:35.207Z,18.94
2022-12-07T13:20:06.214Z,19.84
2022-12-07T13:22:33.994Z,19.74
2022-12-07T13:25:29.024Z,18.58
2022-12-07T13:28:20.288Z,16.80
2022-12-07T13:31:15.099Z,18.29
2022-12-07T13:33:47.980Z,18.26
2022-12-07T13:36:40.590Z,18.47
2022-12-07T13:39:21.592Z,18.69
2022-12-07T13:41:51.785Z,19.33
2022-12-07T13:44:19.301Z,19.35
2022-12-07T13:47:13.221Z,18.84
2022-12-07T13:49:53.561Z,18.70
2022-12-07T13:52:31.113Z,17.90
2022-12-07T13:55:07.546Z,18.21
2022-12-07T13:57:35.479Z,17.76
2022-12-07T14:00:24.982Z,17.89
2022-12-07T14:02:58.727Z,18.39
2022-12-07T14:05:27.796Z,21.29
2022-12-07T14:07:56.434Z,18.73
2022-12-07T14:10:40.429Z,18.79
2022-12-07T14:13:31.737Z,20.31
2022-12-07T14:15:59.222Z,19.15
2022-12-07T14:18:41.118Z,18.67
2022-12-07T14:21:17.462Z,19.00
2022-12-07T14:23:44.484Z,18.82
2022-12-07T14:26:15.964Z,19.35
2022-12-07T14:28:43.877Z,20.00
2022-12-07T14:31:22.884Z,19.80
2022-12-07T14:33:52.188Z,19.69
2022-12-07T14:36:19.029Z,18.72
2022-12-07T14:38:46.332Z,18.68
2022-12-07T14:41:17.229Z,19.01
2022-12-07T14:44:00.016Z,19.74
2022-12-07T14:46:31.066Z,18.29
2022-12-07T14:54:33.551Z,20.08
2022-12-07T14:57:00.474Z,20.64
2022-12-07T14:59:27.235Z,20.36
2022-12-07T15:01:54.284Z,19.61
2022-12-07T15:04:22.493Z,20.88
2022-12-07T15:06:59.953Z,20.30
2022-12-07T15:09:27.522Z,19.67
2022-12-07T15:11:54.250Z,19.72
2022-12-07T15:14:21.365Z,20.40
2022-12-07T15:17:07.967Z,20.46
2022-12-07T15:19:35.021Z,21.37
2022-12-07T15:22:01.736Z,20.66
2022-12-07T15:24:28.490Z,19.70
2022-12-07T15:26:55.658Z,19.61
2022-12-07T15:29:24.138Z,19.41
2022-12-07T15:31:57.062Z,19.40
2022-12-07T15:34:44.556Z,19.17
2022-12-07T15:37:11.398Z,19.42
2022-12-07T15:39:38.214Z,19.23
2022-12-07T15:42:05.022Z,18.81
2022-12-07T15:44:31.941Z,19.73
2022-12-07T15:46:59.130Z,20.51
2022-12-07T15:49:27.029Z,19.37
2022-12-07T15:51:54.126Z,19.32
2022-12-07T15:54:24.743Z,19.90
2022-12-07T15:56:52.004Z,20.55
2022-12-07T15:59:18.820Z,20.09
2022-12-07T16:01:45.571Z,18.57
2022-12-07T16:04:13.681Z,18.58
2022-12-07T16:06:41.609Z,17.65
2022-12-07T16:09:08.857Z,18.32
2022-12-07T16:11:36.312Z,17.95
2022-12-07T16:14:03.401Z,17.98
2022-12-07T16:16:30.373Z,17.83
2022-12-07T16:18:59.098Z,17.98
2022-12-07T16:21:26.155Z,18.52
2022-12-07T16:23:54.596Z,18.20
2022-12-07T16:26:22.366Z,18.69
2022-12-07T16:28:52.803Z,19.36
2022-12-07T16:31:22.544Z,17.38
2022-12-07T16:33:49.469Z,16.86
2022-12-07T16:36:34.117Z,17.26
2022-12-07T16:39:04.027Z,17.33
2022-12-07T16:41:30.867Z,16.74
2022-12-07T16:43:58.014Z,16.30
2022-12-07T16:46:24.995Z,16.36
2022-12-07T16:48:51.840Z,15.98
2022-12-07T16:51:18.631Z,15.54
2022-12-07T16:53:45.685Z,14.97
2022-12-07T16:56:13.538Z,14.54
2022-12-07T16:58:40.868Z,13.70
2022-12-07T17:01:18.546Z,14.25
2022-12-07T17:03:45.626Z,13.45
2022-12-07T17:06:36.269Z,12.30
2022-12-07T17:09:03.107Z,12.33
2022-12-07T17:11:30.536Z,12.07
2022-12-07T17:13:57.552Z,13.64
2022-12-07T17:16:24.526Z,14.85
2022-12-07T17:18:51.456Z,12.42
2022-12-07T17:21:18.245Z,12.48
2022-12-07T17:23:45.169Z,12.24
2022-12-07T17:26:18.351Z,11.55
2022-12-07T17:28:45.136Z,11.65
2022-12-07T17:31:13.418Z,11.32
2022-12-07T17:33:40.433Z,11.45
2022-12-07T17:36:16.295Z,11.41
2022-12-07T17:38:43.229Z,11.19
2022-12-07T17:41:32.982Z,11.51
2022-12-07T17:44:04.524Z,11.33
2022-12-07T17:46:33.051Z,12.40
2022-12-07T17:49:00.826Z,12.16
2022-12-07T17:51:27.521Z,11.82
2022-12-07T17:53:55.437Z,13.24
2022-12-07T17:56:29.637Z,13.85
2022-12-07T17:58:56.962Z,14.01
2022-12-07T18:01:24.600Z,14.06
2022-12-07T18:03:52.259Z,13.58
2022-12-07T18:06:19.411Z,13.49
2022-12-07T18:08:46.192Z,13.25
2022-12-07T18:11:14.101Z,13.22
2022-12-07T18:13:40.862Z,13.89
2022-12-07T18:16:13.206Z,14.30
2022-12-07T18:18:40.223Z,14.51
2022-12-07T18:21:14.838Z,14.51
2022-12-07T18:23:46.457Z,14.71
2022-12-07T18:26:13.473Z,15.90
2022-12-07T18:28:45.116Z,17.01
2022-12-07T18:31:15.485Z,17.29
2022-12-07T18:33:43.475Z,18.87
2022-12-07T18:36:10.536Z,19.37
2022-12-07T18:38:37.410Z,19.05
2022-12-07T18:41:05.534Z,19.92
2022-12-07T18:43:32.967Z,19.17
2022-12-07T18:46:00.166Z,19.15
2022-12-07T18:48:27.075Z,20.96
2022-12-07T18:51:01.999Z,25.36
2022-12-07T18:53:28.801Z,20.00
2022-12-07T18:56:23.615Z,21.30
2022-12-07T18:58:57.581Z,19.95
2022-12-07T19:01:24.473Z,21.42
2022-12-07T19:03:51.293Z,20.06
2022-12-07T19:06:18.516Z,19.90
2022-12-07T19:08:45.367Z,21.02
2022-12-07T19:11:25.924Z,21.18
2022-12-07T19:13:52.726Z,21.10
2022-12-07T19:16:19.641Z,20.72
2022-12-07T19:18:51.227Z,21.93
2022-12-07T19:21:19.170Z,21.86
2022-12-07T19:23:46.242Z,21.58
2022-12-07T19:26:14.133Z,22.26
2022-12-07T19:28:41.207Z,21.31
2022-12-07T19:31:12.045Z,22.15
2022-12-07T19:33:38.989Z,23.08
2022-12-07T19:36:06.135Z,22.70
2022-12-07T19:38:33.243Z,23.29
2022-12-07T19:41:07.138Z,23.82
2022-12-07T19:43:34.647Z,24.00
2022-12-07T19:46:08.801Z,24.21
2022-12-07T19:48:35.639Z,23.94
2022-12-07T19:51:22.189Z,23.62
2022-12-07T19:53:50.199Z,23.48
2022-12-07T19:56:18.688Z,22.76
2022-12-07T19:58:45.882Z,23.31
2022-12-07T20:01:13.105Z,23.87
2022-12-07T20:03:39.987Z,24.80
2022-12-07T20:06:11.117Z,22.59
2022-12-07T20:08:38.249Z,21.87
2022-12-07T20:11:05.461Z,21.25
2022-12-07T20:13:32.285Z,19.68
2022-12-07T20:16:19.280Z,20.92
2022-12-07T20:18:46.502Z,21.80
2022-12-07T20:21:13.245Z,20.52
2022-12-07T20:23:40.565Z,21.34
2022-12-07T20:26:11.173Z,21.52
2022-12-07T20:28:38.089Z,20.81
2022-12-07T20:31:05.158Z,21.48
2022-12-07T20:33:32.421Z,21.45
2022-12-07T20:36:04.964Z,20.79
2022-12-07T20:38:32.164Z,21.71
2022-12-07T20:41:04.019Z,21.23
2022-12-07T20:43:30.820Z,20.18
2022-12-07T20:45:57.800Z,19.84
2022-12-07T20:48:24.902Z,18.99
2022-12-07T20:50:52.115Z,17.08
2022-12-07T20:53:19.325Z,18.55
2022-12-07T20:55:46.658Z,18.70
2022-12-07T20:58:13.486Z,19.35
2022-12-07T21:00:40.239Z,20.59
2022-12-07T21:03:07.450Z,18.70
2022-12-07T21:05:34.232Z,17.91
2022-12-07T21:08:01.443Z,17.34
2022-12-07T21:10:28.285Z,18.15
2022-12-07T21:12:55.926Z,17.51
2022-12-07T21:18:24.289Z,18.96
2022-12-07T21:20:58.889Z,19.42
2022-12-07T21:23:26.251Z,18.98
2022-12-07T21:25:54.356Z,18.95
2022-12-07T21:28:21.456Z,19.53
2022-12-07T21:31:12.147Z,18.60
2022-12-07T21:33:35.861Z,19.24
2022-12-07T21:36:07.922Z,18.37
2022-12-07T21:38:34.644Z,18.51
2022-12-07T21:41:10.321Z,17.87
2022-12-07T21:43:37.410Z,19.07
2022-12-07T21:46:04.255Z,18.11
2022-12-07T21:48:31.436Z,17.66
2022-12-07T21:51:10.924Z,17.53
2022-12-07T21:53:38.599Z,17.49
2022-12-07T21:56:14.180Z,17.78
2022-12-07T21:58:41.251Z,16.65
2022-12-07T22:01:08.081Z,15.71
2022-12-07T22:03:35.047Z,14.83
2022-12-07T22:06:01.886Z,15.53
2022-12-07T22:08:29.104Z,15.53
2022-12-07T22:11:01.300Z,15.06
2022-12-07T22:13:28.079Z,14.90
2022-12-07T22:15:54.989Z,15.28
2022-12-07T22:18:22.227Z,16.24
2022-12-07T22:20:54.631Z,17.00
2022-12-07T22:23:24.187Z,16.05
2022-12-07T22:25:52.012Z,16.45
2022-12-07T22:28:18.715Z,16.08
2022-12-07T22:30:45.509Z,15.97
2022-12-07T22:33:13.040Z,16.29
2022-12-07T22:35:39.927Z,17.63
2022-12-07T22:38:14.060Z,16.89
2022-12-07T22:40:42.024Z,17.24
2022-12-07T22:43:08.800Z,17.44
2022-12-07T22:45:36.161Z,16.99
2022-12-07T22:48:02.915Z,17.45
2022-12-07T22:50:30.945Z,17.07
2022-12-07T22:52:58.699Z,17.02
2022-12-07T22:55:25.520Z,16.59
2022-12-07T22:57:52.563Z,16.90
2022-12-07T23:00:19.653Z,16.95
2022-12-07T23:02:47.037Z,16.74
2022-12-07T23:05:14.150Z,17.93
2022-12-07T23:07:41.376Z,17.84
2022-12-07T23:10:10.203Z,17.78
2022-12-07T23:12:37.177Z,18.39
2022-12-07T23:15:05.519Z,18.67
2022-12-07T23:17:32.740Z,18.56
2022-12-07T23:20:01.858Z,17.90
2022-12-07T23:22:29.577Z,19.00
2022-12-07T23:24:56.874Z,19.25
2022-12-07T23:27:23.949Z,18.76
2022-12-07T23:29:50.845Z,17.42
2022-12-07T23:32:18.672Z,17.89
2022-12-07T23:34:51.924Z,18.52
2022-12-07T23:37:18.832Z,19.32
2022-12-07T23:39:45.947Z,19.04
2022-12-07T23:42:12.923Z,18.01
2022-12-07T23:44:40.004Z,17.52
2022-12-07T23:47:07.123Z,17.59
2022-12-07T23:49:33.944Z,17.97
2022-12-07T23:52:00.653Z,19.07
2022-12-07T23:54:27.511Z,18.72
2022-12-07T23:56:55.993Z,18.73
2022-12-07T23:59:22.666Z,19.00
